sensor_id;sensor_type;location;lat;lon;timestamp;pressure;altitude;pressure_sealevel;temperature;humidity
48778;BME280;34578;0.000;0.000;2023-04-24T00:04:49;95722.47;;;17.42;54.75
48778;BME280;34578;0.000;0.000;2023-04-24T00:09:49;95740.06;;;17.53;58.42
48778;BME280;34578;0.000;0.000;2023-04-24T00:14:50;95716.31;;;17.63;60.74
48778;BME280;34578;0.000;0.000;2023-04-24T00:19:53;95725.56;;;17.67;59.22
48778;BME280;34578;0.000;0.000;2023-04-24T00:24:58;95726.50;;;17.58;58.32
48778;BME280;34578;0.000;0.000;2023-04-24T00:29:58;95715.66;;;17.49;55.34
48778;BME280;34578;0.000;0.000;2023-04-24T00:34:59;95732.53;;;17.47;54.58
48778;BME280;34578;0.000;0.000;2023-04-24T00:39:59;95731.72;;;17.45;54.76
48778;BME280;34578;0.000;0.000;2023-04-24T00:45:00;95725.00;;;17.44;54.81
48778;BME280;34578;0.000;0.000;2023-04-24T00:50:04;95725.84;;;17.43;54.44
48778;BME280;34578;0.000;0.000;2023-04-24T00:55:06;95733.44;;;17.41;54.57
48778;BME280;34578;0.000;0.000;2023-04-24T01:00:07;95730.09;;;17.41;54.89
48778;BME280;34578;0.000;0.000;2023-04-24T01:05:14;95725.03;;;17.41;54.68
48778;BME280;34578;0.000;0.000;2023-04-24T01:10:15;95722.53;;;17.39;54.26
48778;BME280;34578;0.000;0.000;2023-04-24T01:15:19;95718.94;;;17.57;59.77
48778;BME280;34578;0.000;0.000;2023-04-24T01:20:20;95721.38;;;17.64;60.84
48778;BME280;34578;0.000;0.000;2023-04-24T01:25:21;95723.94;;;17.61;58.38
48778;BME280;34578;0.000;0.000;2023-04-24T01:30:21;95715.63;;;17.50;55.07
48778;BME280;34578;0.000;0.000;2023-04-24T01:35:22;95704.72;;;17.47;54.72
48778;BME280;34578;0.000;0.000;2023-04-24T01:40:23;95703.94;;;17.43;54.55
48778;BME280;34578;0.000;0.000;2023-04-24T01:45:23;95698.03;;;17.43;54.58
48778;BME280;34578;0.000;0.000;2023-04-24T01:50:24;95691.28;;;17.42;54.63
48778;BME280;34578;0.000;0.000;2023-04-24T01:55:24;95687.09;;;17.41;54.31
48778;BME280;34578;0.000;0.000;2023-04-24T02:00:25;95703.94;;;17.40;54.47
48778;BME280;34578;0.000;0.000;2023-04-24T02:05:27;95693.00;;;17.40;54.33
48778;BME280;34578;0.000;0.000;2023-04-24T02:10:29;95694.69;;;17.39;54.19
48778;BME280;34578;0.000;0.000;2023-04-24T02:15:32;95701.31;;;17.51;58.68
48778;BME280;34578;0.000;0.000;2023-04-24T02:20:33;95701.19;;;17.60;61.00
48778;BME280;34578;0.000;0.000;2023-04-24T02:25:35;95702.81;;;17.64;59.30
48778;BME280;34578;0.000;0.000;2023-04-24T02:30:35;95696.16;;;17.57;58.53
48778;BME280;34578;0.000;0.000;2023-04-24T02:35:36;95701.34;;;17.46;55.20
48778;BME280;34578;0.000;0.000;2023-04-24T02:40:36;95692.97;;;17.43;54.88
48778;BME280;34578;0.000;0.000;2023-04-24T02:45:37;95700.56;;;17.43;54.85
48778;BME280;34578;0.000;0.000;2023-04-24T02:50:38;95687.94;;;17.40;54.71
48778;BME280;34578;0.000;0.000;2023-04-24T02:55:39;95701.41;;;17.40;54.73
48778;BME280;34578;0.000;0.000;2023-04-24T03:00:39;95703.97;;;17.39;54.72
48778;BME280;34578;0.000;0.000;2023-04-24T03:05:40;95703.94;;;17.40;54.54
48778;BME280;34578;0.000;0.000;2023-04-24T03:10:43;95681.19;;;17.39;54.46
48778;BME280;34578;0.000;0.000;2023-04-24T03:15:43;95685.44;;;17.38;54.57
48778;BME280;34578;0.000;0.000;2023-04-24T03:20:45;95703.81;;;17.52;57.80
48778;BME280;34578;0.000;0.000;2023-04-24T03:25:47;95704.56;;;17.59;61.25
48778;BME280;34578;0.000;0.000;2023-04-24T03:30:49;95707.06;;;17.62;59.19
48778;BME280;34578;0.000;0.000;2023-04-24T03:35:51;95708.88;;;17.52;56.51
48778;BME280;34578;0.000;0.000;2023-04-24T03:40:53;95724.94;;;17.47;55.02
48778;BME280;34578;0.000;0.000;2023-04-24T03:46:15;95715.72;;;17.44;54.58
48778;BME280;34578;0.000;0.000;2023-04-24T03:51:22;95720.75;;;17.46;54.70
48778;BME280;34578;0.000;0.000;2023-04-24T03:56:25;95721.59;;;17.45;54.49
48778;BME280;34578;0.000;0.000;2023-04-24T04:01:26;95725.00;;;17.44;54.61
48778;BME280;34578;0.000;0.000;2023-04-24T04:06:33;95725.00;;;17.44;54.21
48778;BME280;34578;0.000;0.000;2023-04-24T04:11:35;95738.47;;;17.46;54.28
48778;BME280;34578;0.000;0.000;2023-04-24T04:16:36;95755.34;;;17.45;54.04
48778;BME280;34578;0.000;0.000;2023-04-24T04:21:37;95759.53;;;17.48;54.31
48778;BME280;34578;0.000;0.000;2023-04-24T04:26:48;95774.56;;;17.61;60.95
48778;BME280;34578;0.000;0.000;2023-04-24T04:31:58;95790.50;;;17.69;61.51
48778;BME280;34578;0.000;0.000;2023-04-24T04:37:00;95798.97;;;17.64;56.40
48778;BME280;34578;0.000;0.000;2023-04-24T04:42:26;95796.50;;;17.59;54.64
48778;BME280;34578;0.000;0.000;2023-04-24T04:47:27;95790.69;;;17.53;54.27
48778;BME280;34578;0.000;0.000;2023-04-24T04:52:30;95810.91;;;17.53;55.08
48778;BME280;34578;0.000;0.000;2023-04-24T04:57:40;95816.78;;;17.55;54.16
48778;BME280;34578;0.000;0.000;2023-04-24T05:02:41;95817.66;;;17.54;54.44
48778;BME280;34578;0.000;0.000;2023-04-24T05:07:41;95814.25;;;17.55;54.25
48778;BME280;34578;0.000;0.000;2023-04-24T05:12:42;95819.31;;;17.55;54.12
48778;BME280;34578;0.000;0.000;2023-04-24T05:17:43;95838.75;;;17.56;54.40
48778;BME280;34578;0.000;0.000;2023-04-24T05:22:44;95846.34;;;17.56;54.01
48778;BME280;34578;0.000;0.000;2023-04-24T05:27:47;95851.41;;;17.56;54.90
48778;BME280;34578;0.000;0.000;2023-04-24T05:32:49;95857.47;;;17.35;53.57
48778;BME280;34578;0.000;0.000;2023-04-24T05:37:50;95864.06;;;17.56;56.75
48778;BME280;34578;0.000;0.000;2023-04-24T05:42:51;95885.13;;;17.55;54.68
48778;BME280;34578;0.000;0.000;2023-04-24T05:47:51;95882.63;;;17.53;53.68
48778;BME280;34578;0.000;0.000;2023-04-24T05:52:52;95889.38;;;17.51;53.53
48778;BME280;34578;0.000;0.000;2023-04-24T05:57:58;95885.22;;;17.49;53.82
48778;BME280;34578;0.000;0.000;2023-04-24T06:03:00;95891.94;;;17.47;54.03
48778;BME280;34578;0.000;0.000;2023-04-24T06:08:01;95912.19;;;17.47;53.67
48778;BME280;34578;0.000;0.000;2023-04-24T06:13:06;95912.22;;;17.45;53.93
48778;BME280;34578;0.000;0.000;2023-04-24T06:18:09;95909.69;;;17.44;53.87
48778;BME280;34578;0.000;0.000;2023-04-24T06:23:14;95926.59;;;17.43;53.27
48778;BME280;34578;0.000;0.000;2023-04-24T06:28:14;95912.22;;;17.44;53.88
48778;BME280;34578;0.000;0.000;2023-04-24T06:33:15;95926.56;;;17.45;54.17
48778;BME280;34578;0.000;0.000;2023-04-24T06:38:16;95931.50;;;17.60;60.36
48778;BME280;34578;0.000;0.000;2023-04-24T06:43:16;95949.16;;;17.66;59.86
48778;BME280;34578;0.000;0.000;2023-04-24T06:48:17;95953.38;;;17.64;58.44
48778;BME280;34578;0.000;0.000;2023-04-24T06:53:18;95957.69;;;17.53;54.81
48778;BME280;34578;0.000;0.000;2023-04-24T06:58:18;95970.38;;;17.47;54.42
48778;BME280;34578;0.000;0.000;2023-04-24T07:03:18;95966.19;;;17.46;54.61
48778;BME280;34578;0.000;0.000;2023-04-24T07:08:19;95980.56;;;17.44;54.43
48778;BME280;34578;0.000;0.000;2023-04-24T07:13:20;95983.06;;;17.44;54.30
48778;BME280;34578;0.000;0.000;2023-04-24T07:18:21;95983.06;;;17.44;54.07
48778;BME280;34578;0.000;0.000;2023-04-24T07:23:21;95988.13;;;17.44;54.29
48778;BME280;34578;0.000;0.000;2023-04-24T07:28:22;95996.59;;;17.43;54.23
48778;BME280;34578;0.000;0.000;2023-04-24T07:33:22;95999.13;;;17.43;54.16
48778;BME280;34578;0.000;0.000;2023-04-24T07:38:22;95998.28;;;17.41;53.92
48778;BME280;34578;0.000;0.000;2023-04-24T07:43:23;96015.03;;;17.57;60.00
48778;BME280;34578;0.000;0.000;2023-04-24T07:48:24;96019.19;;;17.65;60.65
48778;BME280;34578;0.000;0.000;2023-04-24T07:53:26;96023.41;;;17.62;58.92
48778;BME280;34578;0.000;0.000;2023-04-24T07:58:26;96045.41;;;17.54;55.50
48778;BME280;34578;0.000;0.000;2023-04-24T08:03:27;96050.53;;;17.48;54.78
48778;BME280;34578;0.000;0.000;2023-04-24T08:08:28;96045.47;;;17.45;54.41
48778;BME280;34578;0.000;0.000;2023-04-24T08:13:28;96056.47;;;17.44;54.59
48778;BME280;34578;0.000;0.000;2023-04-24T08:18:28;96075.88;;;17.42;54.63
48778;BME280;34578;0.000;0.000;2023-04-24T08:23:29;96068.28;;;17.42;54.68
48778;BME280;34578;0.000;0.000;2023-04-24T08:28:29;96080.13;;;17.40;54.42
48778;BME280;34578;0.000;0.000;2023-04-24T08:33:30;96071.66;;;17.41;54.55
48778;BME280;34578;0.000;0.000;2023-04-24T08:38:34;96075.06;;;17.40;54.13
48778;BME280;34578;0.000;0.000;2023-04-24T08:43:35;96079.25;;;17.41;54.13
48778;BME280;34578;0.000;0.000;2023-04-24T08:48:37;96091.00;;;17.51;58.67
48778;BME280;34578;0.000;0.000;2023-04-24T08:53:38;96100.22;;;17.62;59.91
48778;BME280;34578;0.000;0.000;2023-04-24T08:58:39;96097.69;;;17.62;59.97
48778;BME280;34578;0.000;0.000;2023-04-24T09:03:39;96107.00;;;17.56;57.09
48778;BME280;34578;0.000;0.000;2023-04-24T09:08:41;96117.16;;;17.48;54.81
48778;BME280;34578;0.000;0.000;2023-04-24T09:13:43;96123.09;;;17.44;54.26
48778;BME280;34578;0.000;0.000;2023-04-24T09:18:43;96123.97;;;17.43;54.60
48778;BME280;34578;0.000;0.000;2023-04-24T09:23:44;96134.06;;;17.42;54.55
48778;BME280;34578;0.000;0.000;2023-04-24T09:28:45;96139.13;;;17.40;54.24
48778;BME280;34578;0.000;0.000;2023-04-24T09:33:56;96129.88;;;17.41;54.65
48778;BME280;34578;0.000;0.000;2023-04-24T09:39:01;96129.00;;;17.39;54.43
48778;BME280;34578;0.000;0.000;2023-04-24T09:44:14;96135.78;;;17.40;54.51
48778;BME280;34578;0.000;0.000;2023-04-24T09:49:16;96145.03;;;17.38;54.19
48778;BME280;34578;0.000;0.000;2023-04-24T09:54:21;96155.16;;;17.41;58.28
48778;BME280;34578;0.000;0.000;2023-04-24T09:59:21;96164.38;;;17.57;59.60
48778;BME280;34578;0.000;0.000;2023-04-24T10:04:23;96171.94;;;17.61;60.20
48778;BME280;34578;0.000;0.000;2023-04-24T10:09:26;96173.63;;;17.58;58.23
48778;BME280;34578;0.000;0.000;2023-04-24T10:14:26;96172.00;;;17.48;55.39
48778;BME280;34578;0.000;0.000;2023-04-24T10:19:29;96176.25;;;17.44;54.61
48778;BME280;34578;0.000;0.000;2023-04-24T10:24:29;96168.63;;;17.46;54.35
48778;BME280;34578;0.000;0.000;2023-04-24T10:29:31;96191.41;;;17.49;54.33
48778;BME280;34578;0.000;0.000;2023-04-24T10:34:32;96180.41;;;17.48;54.36
48778;BME280;34578;0.000;0.000;2023-04-24T10:39:32;96193.94;;;17.46;54.34
48778;BME280;34578;0.000;0.000;2023-04-24T10:44:36;96183.81;;;17.46;53.40
48778;BME280;34578;0.000;0.000;2023-04-24T10:49:37;96188.88;;;17.46;53.75
48778;BME280;34578;0.000;0.000;2023-04-24T10:59:40;96197.31;;;17.46;53.89
48778;BME280;34578;0.000;0.000;2023-04-24T11:04:41;96195.53;;;17.62;59.21
48778;BME280;34578;0.000;0.000;2023-04-24T11:09:45;96187.09;;;17.66;58.83
48778;BME280;34578;0.000;0.000;2023-04-24T11:20:03;96213.28;;;17.59;54.37
48778;BME280;34578;0.000;0.000;2023-04-24T11:25:07;96220.03;;;17.55;54.27
48778;BME280;34578;0.000;0.000;2023-04-24T11:30:09;96227.63;;;17.54;54.21
48778;BME280;34578;0.000;0.000;2023-04-24T11:35:21;96221.75;;;17.52;54.13
48778;BME280;34578;0.000;0.000;2023-04-24T11:40:22;96225.97;;;17.50;53.93
48778;BME280;34578;0.000;0.000;2023-04-24T11:45:28;96221.78;;;17.49;53.98
48778;BME280;34578;0.000;0.000;2023-04-24T11:50:28;96217.56;;;17.45;54.00
48778;BME280;34578;0.000;0.000;2023-04-24T11:55:29;96213.34;;;17.42;54.10
48778;BME280;34578;0.000;0.000;2023-04-24T12:00:31;96205.75;;;17.44;54.12
48778;BME280;34578;0.000;0.000;2023-04-24T12:05:34;96203.22;;;17.42;54.53
48778;BME280;34578;0.000;0.000;2023-04-24T12:10:35;96214.13;;;17.58;58.42
48778;BME280;34578;0.000;0.000;2023-04-24T12:15:39;96202.25;;;17.69;58.23
48778;BME280;34578;0.000;0.000;2023-04-24T12:20:43;96193.00;;;17.65;56.88
48778;BME280;34578;0.000;0.000;2023-04-24T12:25:44;96203.13;;;17.62;54.01
48778;BME280;34578;0.000;0.000;2023-04-24T12:30:47;96199.78;;;17.61;54.43
48778;BME280;34578;0.000;0.000;2023-04-24T12:35:51;96197.25;;;17.61;54.13
48778;BME280;34578;0.000;0.000;2023-04-24T12:41:04;96183.75;;;17.55;54.20
48778;BME280;34578;0.000;0.000;2023-04-24T12:46:05;96184.59;;;17.60;54.28
48778;BME280;34578;0.000;0.000;2023-04-24T12:51:05;96174.50;;;17.57;54.18
48778;BME280;34578;0.000;0.000;2023-04-24T12:56:05;96178.69;;;17.58;53.99
48778;BME280;34578;0.000;0.000;2023-04-24T13:01:06;96174.47;;;17.61;53.80
48778;BME280;34578;0.000;0.000;2023-04-24T13:06:06;96168.56;;;17.61;53.81
48778;BME280;34578;0.000;0.000;2023-04-24T13:11:07;96178.69;;;17.61;53.76
48778;BME280;34578;0.000;0.000;2023-04-24T13:16:07;96179.50;;;17.64;57.58
48778;BME280;34578;0.000;0.000;2023-04-24T13:21:07;96176.06;;;17.74;59.17
48778;BME280;34578;0.000;0.000;2023-04-24T13:26:08;96171.00;;;17.76;57.71
48778;BME280;34578;0.000;0.000;2023-04-24T13:31:09;96168.53;;;17.67;54.22
48778;BME280;34578;0.000;0.000;2023-04-24T13:36:09;96166.00;;;17.65;54.20
48778;BME280;34578;0.000;0.000;2023-04-24T13:41:10;96159.25;;;17.64;54.17
48778;BME280;34578;0.000;0.000;2023-04-24T13:46:10;96165.16;;;17.65;54.22
48778;BME280;34578;0.000;0.000;2023-04-24T13:51:11;96160.97;;;17.62;54.03
48778;BME280;34578;0.000;0.000;2023-04-24T13:56:11;96160.09;;;17.62;54.21
48778;BME280;34578;0.000;0.000;2023-04-24T14:01:14;96156.75;;;17.61;53.91
48778;BME280;34578;0.000;0.000;2023-04-24T14:06:15;96158.41;;;17.64;53.86
48778;BME280;34578;0.000;0.000;2023-04-24T14:11:16;96149.13;;;17.64;53.99
48778;BME280;34578;0.000;0.000;2023-04-24T14:16:16;96154.16;;;17.67;53.85
48778;BME280;34578;0.000;0.000;2023-04-24T14:21:17;96139.81;;;17.68;54.17
48778;BME280;34578;0.000;0.000;2023-04-24T14:26:17;96144.81;;;17.77;57.68
48778;BME280;34578;0.000;0.000;2023-04-24T14:31:17;96145.63;;;17.85;58.64
48778;BME280;34578;0.000;0.000;2023-04-24T14:36:18;96165.09;;;17.77;54.79
48778;BME280;34578;0.000;0.000;2023-04-24T14:41:18;96154.13;;;17.72;54.14
48778;BME280;34578;0.000;0.000;2023-04-24T14:46:19;96161.72;;;17.72;54.18
48778;BME280;34578;0.000;0.000;2023-04-24T14:51:20;96161.72;;;17.72;54.57
48778;BME280;34578;0.000;0.000;2023-04-24T14:56:20;96157.50;;;17.72;54.75
48778;BME280;34578;0.000;0.000;2023-04-24T15:01:21;96160.91;;;17.73;54.88
48778;BME280;34578;0.000;0.000;2023-04-24T15:06:21;96160.03;;;17.71;55.10
48778;BME280;34578;0.000;0.000;2023-04-24T15:11:21;96161.72;;;17.72;54.31
48778;BME280;34578;0.000;0.000;2023-04-24T15:16:23;96151.59;;;17.72;54.14
48778;BME280;34578;0.000;0.000;2023-04-24T15:21:24;96160.06;;;17.74;54.21
48778;BME280;34578;0.000;0.000;2023-04-24T15:26:25;96154.97;;;17.77;54.45
48778;BME280;34578;0.000;0.000;2023-04-24T15:31:25;96159.13;;;17.84;58.10
48778;BME280;34578;0.000;0.000;2023-04-24T15:36:25;96159.91;;;17.93;60.30
48778;BME280;34578;0.000;0.000;2023-04-24T15:41:26;96153.13;;;17.97;57.13
48778;BME280;34578;0.000;0.000;2023-04-24T15:46:26;96146.44;;;17.90;55.18
48778;BME280;34578;0.000;0.000;2023-04-24T15:51:27;96144.81;;;17.83;55.35
48778;BME280;34578;0.000;0.000;2023-04-24T15:56:27;96143.94;;;17.81;55.02
48778;BME280;34578;0.000;0.000;2023-04-24T16:01:27;96150.75;;;17.76;55.75
48778;BME280;34578;0.000;0.000;2023-04-24T16:06:28;96153.25;;;17.80;55.00
48778;BME280;34578;0.000;0.000;2023-04-24T16:11:29;96157.47;;;17.80;55.09
48778;BME280;34578;0.000;0.000;2023-04-24T16:16:32;96162.56;;;17.77;54.58
48778;BME280;34578;0.000;0.000;2023-04-24T16:21:32;96159.16;;;17.79;54.91
48778;BME280;34578;0.000;0.000;2023-04-24T16:26:33;96168.44;;;17.79;54.83
48778;BME280;34578;0.000;0.000;2023-04-24T16:31:33;96163.41;;;17.76;55.61
48778;BME280;34578;0.000;0.000;2023-04-24T16:36:36;96164.19;;;17.82;58.57
48778;BME280;34578;0.000;0.000;2023-04-24T16:41:37;96150.63;;;17.92;59.63
48778;BME280;34578;0.000;0.000;2023-04-24T16:46:37;96153.97;;;17.96;59.02
48778;BME280;34578;0.000;0.000;2023-04-24T16:51:37;96159.13;;;17.82;55.54
48778;BME280;34578;0.000;0.000;2023-04-24T16:56:38;96160.84;;;17.79;54.77
48778;BME280;34578;0.000;0.000;2023-04-24T17:01:38;96155.81;;;17.76;55.64
48778;BME280;34578;0.000;0.000;2023-04-24T17:06:39;96154.97;;;17.72;54.69
48778;BME280;34578;0.000;0.000;2023-04-24T17:11:40;96155.84;;;17.70;54.42
48778;BME280;34578;0.000;0.000;2023-04-24T17:16:41;96159.19;;;17.72;54.57
48778;BME280;34578;0.000;0.000;2023-04-24T17:21:41;96155.00;;;17.74;54.61
48778;BME280;34578;0.000;0.000;2023-04-24T17:26:42;96154.13;;;17.73;53.97
48778;BME280;34578;0.000;0.000;2023-04-24T17:31:42;96155.84;;;17.70;54.16
48778;BME280;34578;0.000;0.000;2023-04-24T17:36:43;96160.03;;;17.77;54.23
48778;BME280;34578;0.000;0.000;2023-04-24T17:41:43;96160.88;;;17.77;54.03
48778;BME280;34578;0.000;0.000;2023-04-24T17:46:43;96149.00;;;17.85;56.70
48778;BME280;34578;0.000;0.000;2023-04-24T17:51:44;96164.13;;;17.94;59.27
48778;BME280;34578;0.000;0.000;2023-04-24T17:56:44;96164.16;;;17.88;54.84
48778;BME280;34578;0.000;0.000;2023-04-24T18:01:45;96169.22;;;17.88;54.35
48778;BME280;34578;0.000;0.000;2023-04-24T18:06:45;96163.34;;;17.83;54.21
48778;BME280;34578;0.000;0.000;2023-04-24T18:11:45;96165.84;;;17.89;54.28
48778;BME280;34578;0.000;0.000;2023-04-24T18:16:47;96171.78;;;17.87;53.98
48778;BME280;34578;0.000;0.000;2023-04-24T18:21:47;96173.47;;;17.85;54.44
48778;BME280;34578;0.000;0.000;2023-04-24T18:26:48;96163.34;;;17.85;53.78
48778;BME280;34578;0.000;0.000;2023-04-24T18:31:48;96173.47;;;17.85;54.51
48778;BME280;34578;0.000;0.000;2023-04-24T18:36:49;96172.66;;;17.83;53.97
48778;BME280;34578;0.000;0.000;2023-04-24T18:41:49;96177.72;;;17.81;54.14
48778;BME280;34578;0.000;0.000;2023-04-24T18:46:49;96186.16;;;17.82;53.97
48778;BME280;34578;0.000;0.000;2023-04-24T18:51:51;96191.16;;;17.89;56.59
48778;BME280;34578;0.000;0.000;2023-04-24T18:56:52;96191.13;;;17.97;60.69
48778;BME280;34578;0.000;0.000;2023-04-24T19:01:52;96185.22;;;17.93;56.77
48778;BME280;34578;0.000;0.000;2023-04-24T19:06:53;96192.03;;;17.90;54.66
48778;BME280;34578;0.000;0.000;2023-04-24T19:11:53;96199.63;;;17.87;54.46
48778;BME280;34578;0.000;0.000;2023-04-24T19:16:53;96197.16;;;17.79;53.80
48778;BME280;34578;0.000;0.000;2023-04-24T19:21:54;96194.63;;;17.73;53.46
48778;BME280;34578;0.000;0.000;2023-04-24T19:26:54;96201.41;;;17.70;52.41
48778;BME280;34578;0.000;0.000;2023-04-24T19:31:55;96205.66;;;17.68;51.98
48778;BME280;34578;0.000;0.000;2023-04-24T19:36:58;96199.75;;;17.66;52.59
48778;BME280;34578;0.000;0.000;2023-04-24T19:41:58;96209.03;;;17.67;51.73
48778;BME280;34578;0.000;0.000;2023-04-24T19:47:00;96205.66;;;17.62;51.67
48778;BME280;34578;0.000;0.000;2023-04-24T19:52:00;96209.03;;;17.64;51.12
48778;BME280;34578;0.000;0.000;2023-04-24T19:57:00;96203.97;;;17.64;51.04
48778;BME280;34578;0.000;0.000;2023-04-24T20:02:01;96198.03;;;17.74;52.80
48778;BME280;34578;0.000;0.000;2023-04-24T20:07:01;96203.88;;;17.82;56.03
48778;BME280;34578;0.000;0.000;2023-04-24T20:12:02;96199.69;;;17.73;51.11
48778;BME280;34578;0.000;0.000;2023-04-24T20:17:02;96193.00;;;17.63;50.49
48778;BME280;34578;0.000;0.000;2023-04-24T20:22:03;96185.41;;;17.62;50.53
48778;BME280;34578;0.000;0.000;2023-04-24T20:27:03;96188.81;;;17.61;50.25
48778;BME280;34578;0.000;0.000;2023-04-24T20:32:04;96180.38;;;17.57;50.19
48778;BME280;34578;0.000;0.000;2023-04-24T20:37:04;96176.16;;;17.56;49.75
48778;BME280;34578;0.000;0.000;2023-04-24T20:42:05;96182.94;;;17.54;49.98
48778;BME280;34578;0.000;0.000;2023-04-24T20:47:06;96183.78;;;17.52;49.77
48778;BME280;34578;0.000;0.000;2023-04-24T20:52:07;96176.19;;;17.52;49.53
48778;BME280;34578;0.000;0.000;2023-04-24T20:57:08;96165.22;;;17.51;49.95
48778;BME280;34578;0.000;0.000;2023-04-24T21:02:08;96163.53;;;17.50;49.80
48778;BME280;34578;0.000;0.000;2023-04-24T21:07:08;96166.06;;;17.52;49.56
48778;BME280;34578;0.000;0.000;2023-04-24T21:12:10;96166.84;;;17.66;52.73
48778;BME280;34578;0.000;0.000;2023-04-24T21:17:11;96160.06;;;17.74;55.59
48778;BME280;34578;0.000;0.000;2023-04-24T21:22:11;96157.59;;;17.60;50.14
48778;BME280;34578;0.000;0.000;2023-04-24T21:27:11;96156.78;;;17.54;49.54
48778;BME280;34578;0.000;0.000;2023-04-24T21:32:12;96150.88;;;17.50;49.81
48778;BME280;34578;0.000;0.000;2023-04-24T21:37:12;96150.06;;;17.47;49.41
48778;BME280;34578;0.000;0.000;2023-04-24T21:42:15;96141.63;;;17.45;49.24
48778;BME280;34578;0.000;0.000;2023-04-24T21:47:16;96133.22;;;17.43;49.49
48778;BME280;34578;0.000;0.000;2023-04-24T21:52:18;96140.00;;;17.41;49.09
48778;BME280;34578;0.000;0.000;2023-04-24T21:57:19;96132.38;;;17.38;49.18
48778;BME280;34578;0.000;0.000;2023-04-24T22:02:19;96120.59;;;17.38;48.85
48778;BME280;34578;0.000;0.000;2023-04-24T22:07:21;96122.28;;;17.38;48.98
48778;BME280;34578;0.000;0.000;2023-04-24T22:12:21;96112.16;;;17.38;48.66
48778;BME280;34578;0.000;0.000;2023-04-24T22:17:21;96123.09;;;17.43;48.69
48778;BME280;34578;0.000;0.000;2023-04-24T22:22:23;96128.09;;;17.56;51.16
48778;BME280;34578;0.000;0.000;2023-04-24T22:27:23;96133.13;;;17.61;49.96
48778;BME280;34578;0.000;0.000;2023-04-24T22:32:24;96136.59;;;17.48;48.15
48778;BME280;34578;0.000;0.000;2023-04-24T22:37:24;96130.69;;;17.43;48.29
48778;BME280;34578;0.000;0.000;2023-04-24T22:42:24;96129.00;;;17.39;48.42
48778;BME280;34578;0.000;0.000;2023-04-24T22:47:25;96128.19;;;17.37;48.40
48778;BME280;34578;0.000;0.000;2023-04-24T22:52:25;96121.44;;;17.37;48.16
48778;BME280;34578;0.000;0.000;2023-04-24T22:57:27;96113.84;;;17.36;48.18
48778;BME280;34578;0.000;0.000;2023-04-24T23:02:28;96113.00;;;17.34;48.21
48778;BME280;34578;0.000;0.000;2023-04-24T23:07:29;96113.00;;;17.34;47.98
48778;BME280;34578;0.000;0.000;2023-04-24T23:12:30;96109.63;;;17.33;47.89
48778;BME280;34578;0.000;0.000;2023-04-24T23:17:30;96111.31;;;17.33;48.10
48778;BME280;34578;0.000;0.000;2023-04-24T23:22:31;96104.56;;;17.33;47.87
48778;BME280;34578;0.000;0.000;2023-04-24T23:27:31;96093.59;;;17.43;49.45
48778;BME280;34578;0.000;0.000;2023-04-24T23:32:31;96095.19;;;17.58;54.08
48778;BME280;34578;0.000;0.000;2023-04-24T23:37:32;96098.56;;;17.57;50.88
48778;BME280;34578;0.000;0.000;2023-04-24T23:42:32;96097.81;;;17.44;48.48
48778;BME280;34578;0.000;0.000;2023-04-24T23:47:32;96088.53;;;17.39;48.06
48778;BME280;34578;0.000;0.000;2023-04-24T23:52:34;96076.72;;;17.35;48.11
48778;BME280;34578;0.000;0.000;2023-04-24T23:57:35;96075.03;;;17.32;48.02
